createdAt,value
2022-09-14T00:00:02.769Z,62.70
2022-09-14T00:00:15.153Z,62.55
2022-09-14T00:00:27.046Z,63.12
2022-09-14T00:00:42.091Z,62.63
2022-09-14T00:01:14.358Z,63.02
2022-09-14T00:01:28.591Z,62.54
2022-09-14T00:01:43.787Z,62.58
2022-09-14T00:01:55.904Z,62.59
2022-09-14T00:02:08.020Z,62.28
2022-09-14T00:02:20.182Z,62.34
2022-09-14T00:02:32.332Z,62.64
2022-09-14T00:02:46.664Z,63.01
2022-09-14T00:02:59.245Z,62.76
2022-09-14T00:03:11.725Z,62.52
2022-09-14T00:03:23.872Z,62.69
2022-09-14T00:03:36.622Z,62.99
2022-09-14T00:03:52.918Z,62.91
2022-09-14T00:04:08.626Z,63.17
2022-09-14T00:04:20.527Z,62.64
2022-09-14T00:04:32.482Z,62.66
2022-09-14T00:04:44.369Z,63.23
2022-09-14T00:04:56.242Z,62.19
2022-09-14T00:05:08.501Z,62.56
2022-09-14T00:05:20.475Z,62.61
2022-09-14T00:05:35.090Z,62.34
2022-09-14T00:05:47.605Z,62.38
2022-09-14T00:06:10.992Z,62.63
2022-09-14T00:06:22.945Z,63.35
2022-09-14T00:06:35.438Z,63.46
2022-09-14T00:06:47.780Z,63.12
2022-09-14T00:06:59.703Z,63.13
2022-09-14T00:07:11.580Z,62.89
2022-09-14T00:07:23.463Z,62.94
2022-09-14T00:07:35.345Z,63.43
2022-09-14T00:07:47.578Z,63.54
2022-09-14T00:07:59.468Z,63.07
2022-09-14T00:08:12.182Z,62.95
2022-09-14T00:08:24.034Z,62.99
2022-09-14T00:08:36.331Z,63.54
2022-09-14T00:08:52.995Z,63.63
2022-09-14T00:09:08.567Z,63.33
2022-09-14T00:09:23.134Z,63.11
2022-09-14T00:09:35.101Z,63.69
2022-09-14T00:09:47.297Z,64.00
2022-09-14T00:09:59.244Z,63.31
2022-09-14T00:10:11.199Z,64.16
2022-09-14T00:10:23.409Z,64.13
2022-09-14T00:10:39.889Z,64.19
2022-09-14T00:10:51.786Z,63.75
2022-09-14T00:11:06.402Z,63.73
2022-09-14T00:11:19.345Z,63.56
2022-09-14T00:11:32.884Z,63.83
2022-09-14T00:11:45.230Z,63.41
2022-09-14T00:11:57.174Z,63.40
2022-09-14T00:12:10.228Z,63.59
2022-09-14T00:12:22.168Z,63.44
2022-09-14T00:12:34.046Z,63.86
2022-09-14T00:12:45.958Z,63.81
2022-09-14T00:12:58.148Z,63.39
2022-09-14T00:13:12.048Z,63.37
2022-09-14T00:13:23.937Z,63.53
2022-09-14T00:13:36.369Z,63.27
2022-09-14T00:13:49.002Z,63.54
2022-09-14T00:14:02.336Z,63.27
2022-09-14T00:14:15.401Z,63.37
2022-09-14T00:14:27.290Z,63.82
2022-09-14T00:14:39.933Z,63.70
2022-09-14T00:14:51.828Z,63.50
2022-09-14T00:15:04.570Z,63.67
2022-09-14T00:15:16.603Z,63.47
2022-09-14T00:15:28.517Z,63.74
2022-09-14T00:15:43.341Z,63.23
2022-09-14T00:15:55.248Z,63.68
2022-09-14T00:16:12.321Z,63.32
2022-09-14T00:16:28.897Z,63.54
2022-09-14T00:16:41.874Z,63.16
2022-09-14T00:16:53.893Z,63.21
2022-09-14T00:17:05.972Z,63.45
2022-09-14T00:17:17.940Z,63.31
2022-09-14T00:17:29.844Z,63.75
2022-09-14T00:17:41.731Z,63.86
2022-09-14T00:17:53.596Z,63.92
2022-09-14T00:18:07.116Z,63.76
2022-09-14T00:18:19.004Z,64.19
2022-09-14T00:18:31.657Z,64.39
2022-09-14T00:18:44.438Z,63.77
2022-09-14T00:19:09.091Z,63.62
2022-09-14T00:19:26.781Z,63.81
2022-09-14T00:19:38.693Z,64.16
2022-09-14T00:19:50.957Z,64.56
2022-09-14T00:20:03.006Z,64.49
2022-09-14T00:20:15.067Z,64.42
2022-09-14T00:20:26.940Z,65.63
2022-09-14T00:20:38.865Z,65.43
2022-09-14T00:20:50.751Z,65.49
2022-09-14T00:21:05.240Z,65.86
2022-09-14T00:21:17.153Z,65.70
2022-09-14T00:21:29.087Z,66.05
2022-09-14T00:21:42.457Z,65.98
2022-09-14T00:21:57.115Z,66.00
2022-09-14T00:22:09.143Z,65.72
2022-09-14T00:22:21.087Z,66.07
2022-09-14T00:22:32.980Z,66.04
2022-09-14T00:22:44.858Z,66.75
2022-09-14T00:22:56.888Z,67.05
2022-09-14T00:23:08.788Z,67.21
2022-09-14T00:23:20.671Z,68.16
2022-09-14T00:23:35.463Z,67.51
2022-09-14T00:23:47.487Z,67.38
2022-09-14T00:23:59.407Z,67.08
2022-09-14T00:24:12.226Z,67.27
2022-09-14T00:24:26.059Z,67.07
2022-09-14T00:24:38.056Z,67.10
2022-09-14T00:24:50.376Z,67.43
2022-09-14T00:25:02.319Z,67.24
2022-09-14T00:25:14.372Z,66.99
2022-09-14T00:25:26.902Z,66.98
2022-09-14T00:25:38.819Z,66.50
2022-09-14T00:25:50.864Z,66.80
2022-09-14T00:26:05.142Z,66.44
2022-09-14T00:26:22.593Z,66.56
2022-09-14T00:26:35.199Z,66.72
2022-09-14T00:26:47.137Z,66.17
2022-09-14T00:26:59.157Z,66.49
2022-09-14T00:27:11.036Z,66.79
2022-09-14T00:27:23.109Z,66.55
2022-09-14T00:27:34.997Z,66.42
2022-09-14T00:27:46.892Z,66.69
2022-09-14T00:27:58.787Z,66.50
2022-09-14T00:28:11.864Z,66.72
2022-09-14T00:28:23.753Z,66.58
2022-09-14T00:28:51.325Z,67.22
2022-09-14T00:29:04.847Z,66.85
2022-09-14T00:29:17.258Z,66.64
2022-09-14T00:29:30.408Z,66.59
2022-09-14T00:29:42.359Z,66.74
2022-09-14T00:29:54.299Z,66.63
2022-09-14T00:30:06.990Z,66.86
2022-09-14T00:30:19.509Z,66.83
2022-09-14T00:30:31.571Z,67.31
2022-09-14T00:30:43.455Z,67.27
2022-09-14T00:30:55.334Z,66.71
2022-09-14T00:31:08.149Z,65.97
2022-09-14T00:31:21.579Z,66.19
2022-09-14T00:31:36.181Z,66.44
2022-09-14T00:31:48.491Z,66.47
2022-09-14T00:32:00.614Z,66.28
2022-09-14T00:32:12.706Z,66.39
2022-09-14T00:32:24.675Z,66.44
2022-09-14T00:32:36.549Z,66.11
2022-09-14T00:32:48.413Z,65.86
2022-09-14T00:33:00.350Z,65.85
2022-09-14T00:33:12.649Z,66.22
2022-09-14T00:33:24.668Z,65.97
2022-09-14T00:33:37.280Z,65.65
2022-09-14T00:33:50.800Z,65.59
2022-09-14T00:34:04.900Z,65.74
2022-09-14T00:34:17.835Z,65.84
2022-09-14T00:34:30.084Z,66.06
2022-09-14T00:34:41.960Z,66.13
2022-09-14T00:34:53.896Z,66.18
2022-09-14T00:35:06.829Z,66.44
2022-09-14T00:35:19.110Z,66.40
2022-09-14T00:35:31.013Z,66.02
2022-09-14T00:35:43.036Z,66.09
2022-09-14T00:35:54.920Z,65.81
2022-09-14T00:36:12.574Z,66.17
2022-09-14T00:36:27.413Z,66.21
2022-09-14T00:36:42.859Z,66.29
2022-09-14T00:36:55.714Z,66.44
2022-09-14T00:37:07.681Z,66.43
2022-09-14T00:37:19.641Z,66.03
2022-09-14T00:37:31.580Z,66.11
2022-09-14T00:37:43.576Z,66.11
2022-09-14T00:37:55.525Z,66.32
2022-09-14T00:38:09.716Z,66.14
2022-09-14T00:38:21.605Z,66.78
2022-09-14T00:38:33.660Z,66.14
2022-09-14T00:38:46.677Z,66.34
2022-09-14T00:39:00.493Z,66.23
2022-09-14T00:39:13.330Z,66.54
2022-09-14T00:39:25.388Z,66.41
2022-09-14T00:39:37.474Z,66.73
2022-09-14T00:39:50.281Z,66.55
2022-09-14T00:40:04.421Z,66.69
2022-09-14T00:40:16.775Z,66.62
2022-09-14T00:40:29.043Z,66.56
2022-09-14T00:40:40.935Z,66.35
2022-09-14T00:41:00.008Z,66.33
2022-09-14T00:41:17.492Z,66.56
2022-09-14T00:41:34.739Z,66.96
2022-09-14T00:41:48.905Z,66.78
2022-09-14T00:42:00.800Z,66.85
2022-09-14T00:42:16.380Z,66.29
2022-09-14T00:42:28.293Z,66.44
2022-09-14T00:42:40.184Z,66.65
2022-09-14T00:42:52.055Z,66.84
2022-09-14T00:43:12.634Z,66.38
2022-09-14T00:43:24.949Z,66.38
2022-09-14T00:43:57.459Z,67.03
2022-09-14T00:44:12.571Z,67.03
2022-09-14T00:44:24.386Z,67.11
2022-09-14T00:44:36.207Z,67.35
2022-09-14T00:44:48.042Z,67.08
2022-09-14T00:45:08.162Z,66.85
2022-09-14T00:45:21.982Z,66.71
2022-09-14T00:45:33.972Z,66.99
2022-09-14T00:45:45.892Z,66.85
2022-09-14T00:46:01.623Z,67.26
2022-09-14T00:46:13.717Z,67.06
2022-09-14T00:46:27.784Z,67.40
2022-09-14T00:46:48.377Z,66.95
2022-09-14T00:47:02.604Z,66.56
2022-09-14T00:47:16.848Z,66.96
2022-09-14T00:47:31.774Z,66.46
2022-09-14T00:47:43.906Z,66.83
2022-09-14T00:47:56.700Z,66.75
2022-09-14T00:48:09.415Z,66.55
2022-09-14T00:48:24.696Z,66.88
2022-09-14T00:48:36.707Z,66.52
2022-09-14T00:48:48.999Z,66.51
2022-09-14T00:49:02.887Z,66.83
2022-09-14T00:49:29.891Z,66.71
2022-09-14T00:49:43.525Z,66.50
2022-09-14T00:49:55.657Z,66.65
2022-09-14T00:50:08.024Z,66.70
2022-09-14T00:50:20.991Z,66.63
2022-09-14T00:50:33.015Z,67.34
2022-09-14T00:50:45.794Z,67.26
2022-09-14T00:50:57.831Z,67.38
2022-09-14T00:51:10.168Z,67.35
2022-09-14T00:51:22.450Z,67.24
2022-09-14T00:51:37.652Z,67.10
2022-09-14T00:51:52.317Z,67.38
2022-09-14T00:52:16.048Z,67.61
2022-09-14T00:52:32.812Z,67.43
2022-09-14T00:52:49.165Z,68.23
2022-09-14T00:53:01.203Z,67.99
2022-09-14T00:53:13.113Z,68.23
2022-09-14T00:53:25.142Z,68.44
2022-09-14T00:53:37.150Z,68.10
2022-09-14T00:53:49.830Z,68.10
2022-09-14T00:54:03.516Z,68.54
2022-09-14T00:54:15.411Z,68.61
2022-09-14T00:54:27.351Z,68.54
2022-09-14T00:54:42.361Z,68.89
2022-09-14T00:54:57.219Z,68.58
2022-09-14T00:55:12.811Z,68.86
2022-09-14T00:55:25.463Z,68.94
2022-09-14T00:55:37.684Z,69.47
2022-09-14T00:55:51.075Z,69.75
2022-09-14T00:56:03.151Z,69.59
2022-09-14T00:56:15.386Z,69.84
2022-09-14T00:56:27.323Z,69.59
2022-09-14T00:56:39.352Z,70.13
2022-09-14T00:56:51.529Z,69.89
2022-09-14T00:57:03.957Z,69.99
2022-09-14T00:57:17.435Z,70.54
2022-09-14T00:57:37.136Z,70.16
2022-09-14T00:57:52.029Z,69.66
2022-09-14T00:58:03.955Z,69.70
2022-09-14T00:58:15.852Z,69.88
2022-09-14T00:58:27.980Z,70.32
2022-09-14T00:58:41.296Z,70.23
2022-09-14T00:58:57.539Z,69.98
2022-09-14T00:59:16.130Z,71.12
2022-09-14T00:59:31.361Z,70.71
2022-09-14T00:59:44.169Z,70.82
2022-09-14T00:59:57.203Z,70.58
2022-09-14T01:00:11.200Z,70.85
2022-09-14T01:00:27.257Z,70.27
2022-09-14T01:00:39.183Z,70.50
2022-09-14T01:00:51.150Z,70.20
2022-09-14T01:01:03.416Z,70.58
2022-09-14T01:01:15.970Z,70.55
2022-09-14T01:01:28.619Z,70.40
2022-09-14T01:01:41.087Z,70.24
2022-09-14T01:01:53.480Z,70.09
2022-09-14T01:02:08.991Z,70.00
2022-09-14T01:02:23.146Z,70.34
2022-09-14T01:02:35.346Z,70.16
2022-09-14T01:02:47.406Z,70.07
2022-09-14T01:03:00.021Z,69.88
2022-09-14T01:03:11.900Z,69.92
2022-09-14T01:03:23.773Z,69.58
2022-09-14T01:03:36.491Z,69.64
2022-09-14T01:03:48.611Z,69.30
2022-09-14T01:04:00.627Z,69.58
2022-09-14T01:04:12.509Z,69.62
2022-09-14T01:04:24.480Z,69.63
2022-09-14T01:04:37.153Z,69.77
2022-09-14T01:04:49.886Z,69.62
2022-09-14T01:05:02.013Z,69.27
2022-09-14T01:05:14.814Z,69.31
2022-09-14T01:05:42.599Z,69.38
2022-09-14T01:06:26.152Z,68.83
2022-09-14T01:06:44.320Z,68.58
2022-09-14T01:06:59.985Z,68.79
2022-09-14T01:07:29.836Z,69.07
2022-09-14T01:08:05.927Z,68.96
2022-09-14T01:08:31.269Z,68.95
2022-09-14T01:08:49.016Z,68.80
2022-09-14T01:09:18.735Z,68.58
2022-09-14T01:10:07.613Z,68.70
2022-09-14T01:10:47.035Z,68.54
2022-09-14T01:11:11.757Z,68.37
2022-09-14T01:11:35.639Z,68.22
2022-09-14T01:11:59.310Z,68.17
2022-09-14T01:12:55.489Z,68.61
2022-09-14T01:13:27.251Z,68.42
2022-09-14T01:13:47.787Z,68.15
2022-09-14T01:14:42.776Z,68.37
2022-09-14T01:15:15.176Z,68.25
2022-09-14T01:15:45.180Z,68.44
2022-09-14T01:16:02.731Z,68.41
2022-09-14T01:16:30.911Z,68.58
2022-09-14T01:17:09.005Z,68.66
2022-09-14T01:17:26.699Z,68.16
2022-09-14T01:18:00.001Z,68.16
2022-09-14T01:18:30.154Z,68.41
2022-09-14T01:18:48.411Z,68.36
2022-09-14T01:19:06.255Z,68.30
2022-09-14T01:19:42.760Z,68.07
2022-09-14T01:20:00.487Z,67.98
2022-09-14T01:20:38.609Z,68.30
2022-09-14T01:21:10.111Z,68.34
2022-09-14T01:21:32.207Z,68.53
2022-09-14T01:21:44.897Z,68.17
2022-09-14T01:22:09.080Z,68.45
2022-09-14T01:22:32.481Z,68.04
2022-09-14T01:22:52.790Z,68.40
2022-09-14T01:23:16.730Z,68.40
2022-09-14T01:23:50.515Z,68.40
2022-09-14T01:24:23.156Z,68.60
2022-09-14T01:25:02.342Z,68.10
2022-09-14T01:25:53.268Z,68.11
2022-09-14T01:26:22.983Z,68.17
2022-09-14T01:27:29.264Z,69.27
2022-09-14T01:27:44.013Z,69.01
2022-09-14T01:28:02.198Z,68.55
2022-09-14T01:28:22.570Z,68.98
2022-09-14T01:28:42.571Z,68.86
2022-09-14T01:29:22.376Z,68.80
2022-09-14T01:29:40.010Z,68.75
2022-09-14T01:30:01.678Z,68.89
2022-09-14T01:30:23.930Z,68.91
2022-09-14T01:30:38.866Z,68.80
2022-09-14T01:30:53.990Z,68.50
2022-09-14T01:31:13.196Z,68.47
2022-09-14T01:31:37.748Z,68.40
2022-09-14T01:31:58.864Z,68.09
2022-09-14T01:32:19.693Z,68.27
2022-09-14T01:32:35.352Z,68.56
2022-09-14T01:32:59.796Z,67.86
2022-09-14T01:33:34.697Z,68.30
2022-09-14T01:33:55.414Z,68.29
2022-09-14T01:34:32.937Z,68.55
2022-09-14T01:34:57.820Z,68.49
2022-09-14T01:35:49.106Z,68.46
2022-09-14T01:36:04.313Z,68.24
2022-09-14T01:36:17.778Z,68.01
2022-09-14T01:36:34.884Z,68.00
2022-09-14T01:36:53.089Z,68.24
2022-09-14T01:37:35.034Z,68.11
2022-09-14T01:37:55.912Z,68.09
2022-09-14T01:38:12.402Z,68.36
2022-09-14T01:38:32.036Z,68.39
2022-09-14T01:38:48.923Z,68.56
2022-09-14T01:39:02.328Z,68.18
2022-09-14T01:39:16.532Z,68.40
2022-09-14T01:39:31.569Z,68.28
2022-09-14T01:39:50.154Z,68.71
2022-09-14T01:40:13.105Z,68.72
2022-09-14T01:40:31.003Z,68.73
2022-09-14T01:40:47.084Z,69.03
2022-09-14T01:41:02.995Z,68.89
2022-09-14T01:41:20.266Z,68.81
2022-09-14T01:41:33.878Z,68.86
2022-09-14T01:41:47.724Z,69.12
2022-09-14T01:42:01.445Z,69.21
2022-09-14T01:42:14.696Z,69.43
2022-09-14T01:42:28.750Z,69.17
2022-09-14T01:42:44.414Z,69.46
2022-09-14T01:43:04.081Z,69.33
2022-09-14T01:43:26.414Z,69.29
2022-09-14T01:43:42.521Z,68.64
2022-09-14T01:44:00.316Z,69.29
2022-09-14T01:44:25.379Z,69.19
2022-09-14T01:44:41.911Z,69.01
2022-09-14T01:45:00.131Z,69.01
2022-09-14T01:45:16.472Z,69.10
2022-09-14T01:45:30.652Z,69.09
2022-09-14T01:45:49.721Z,69.17
2022-09-14T01:46:16.315Z,69.42
2022-09-14T01:46:39.874Z,69.45
2022-09-14T01:46:57.040Z,69.56
2022-09-14T01:47:16.558Z,69.59
2022-09-14T01:47:36.671Z,69.24
2022-09-14T01:47:54.786Z,69.33
2022-09-14T01:48:10.532Z,69.41
2022-09-14T01:48:30.621Z,69.48
2022-09-14T01:49:04.796Z,68.97
2022-09-14T01:49:32.165Z,68.92
2022-09-14T01:49:49.223Z,68.91
2022-09-14T01:50:11.717Z,69.26
2022-09-14T01:50:34.008Z,68.75
2022-09-14T01:50:53.015Z,68.42
2022-09-14T01:51:12.517Z,67.65
2022-09-14T01:51:36.252Z,67.79
2022-09-14T01:51:51.864Z,67.62
2022-09-14T01:52:16.471Z,68.11
2022-09-14T01:52:39.655Z,67.96
2022-09-14T01:52:59.503Z,67.92
2022-09-14T01:53:20.045Z,67.91
2022-09-14T01:53:43.589Z,68.31
2022-09-14T01:54:12.632Z,68.40
2022-09-14T01:54:33.711Z,68.88
2022-09-14T01:54:54.764Z,69.63
2022-09-14T01:55:13.525Z,69.42
2022-09-14T01:55:31.714Z,69.95
2022-09-14T01:55:49.010Z,69.89
2022-09-14T01:56:07.593Z,70.29
2022-09-14T01:56:26.571Z,69.95
2022-09-14T01:56:43.119Z,70.42
2022-09-14T01:57:00.340Z,70.34
2022-09-14T01:57:21.715Z,70.69
2022-09-14T01:57:36.134Z,70.94
2022-09-14T01:58:11.660Z,71.01
2022-09-14T01:58:32.591Z,71.41
2022-09-14T01:58:50.265Z,71.85
2022-09-14T01:59:05.130Z,72.08
2022-09-14T01:59:28.984Z,72.22
2022-09-14T01:59:46.172Z,72.50
2022-09-14T02:00:02.320Z,72.55
2022-09-14T02:00:17.564Z,72.46
2022-09-14T02:00:31.012Z,72.80
2022-09-14T02:00:46.393Z,72.86
2022-09-14T02:01:01.928Z,73.19
2022-09-14T02:01:19.866Z,73.05
2022-09-14T02:01:40.109Z,73.60
2022-09-14T02:02:00.215Z,74.03
2022-09-14T02:02:14.603Z,74.12
2022-09-14T02:02:34.546Z,74.06
2022-09-14T02:03:01.827Z,74.26
2022-09-14T02:03:18.643Z,74.74
2022-09-14T02:03:37.898Z,75.00
2022-09-14T02:03:55.535Z,75.07
2022-09-14T02:04:10.360Z,75.10
2022-09-14T02:04:39.106Z,76.36
2022-09-14T02:05:08.986Z,77.20
2022-09-14T02:05:46.045Z,77.56
2022-09-14T02:06:10.543Z,78.31
2022-09-14T02:06:34.220Z,79.22
2022-09-14T02:06:48.853Z,79.61
2022-09-14T02:07:00.814Z,79.70
2022-09-14T02:07:12.899Z,79.79
2022-09-14T02:07:24.965Z,80.01
2022-09-14T02:07:37.987Z,80.20
2022-09-14T02:07:50.000Z,80.42
2022-09-14T02:08:02.529Z,80.36
2022-09-14T02:08:14.675Z,80.67
2022-09-14T02:08:29.649Z,80.54
2022-09-14T02:08:41.861Z,80.40
2022-09-14T02:08:54.365Z,80.66
2022-09-14T02:09:10.162Z,80.79
2022-09-14T02:09:26.781Z,81.06
2022-09-14T02:09:39.603Z,81.75
2022-09-14T02:09:54.336Z,81.92
2022-09-14T02:10:11.596Z,82.56
2022-09-14T02:10:24.411Z,82.65
2022-09-14T02:10:36.703Z,82.77
2022-09-14T02:10:48.606Z,82.71
2022-09-14T02:11:01.870Z,82.68
2022-09-14T02:11:13.734Z,82.75
2022-09-14T02:11:25.880Z,83.18
2022-09-14T02:11:38.542Z,83.46
2022-09-14T02:11:50.444Z,83.53
2022-09-14T02:12:02.573Z,83.92
2022-09-14T02:12:16.087Z,84.17
2022-09-14T02:12:27.991Z,84.24
2022-09-14T02:12:40.677Z,84.23
2022-09-14T02:12:53.724Z,84.39
2022-09-14T02:13:07.063Z,84.64
2022-09-14T02:13:19.206Z,84.28
2022-09-14T02:13:31.130Z,84.07
2022-09-14T02:13:43.371Z,84.37
2022-09-14T02:13:55.578Z,84.63
2022-09-14T02:14:07.691Z,84.93
2022-09-14T02:14:19.803Z,84.99
2022-09-14T02:14:31.953Z,84.72
2022-09-14T02:14:46.086Z,85.55
2022-09-14T02:14:58.219Z,85.34
2022-09-14T02:15:12.655Z,84.95
2022-09-14T02:15:26.240Z,85.50
2022-09-14T02:15:39.433Z,85.14
2022-09-14T02:15:51.544Z,85.26
2022-09-14T02:16:03.616Z,85.38
2022-09-14T02:16:15.705Z,85.59
2022-09-14T02:16:28.212Z,85.33
2022-09-14T02:16:43.428Z,85.31
2022-09-14T02:16:55.754Z,85.44
2022-09-14T02:17:08.256Z,85.69
2022-09-14T02:17:21.163Z,85.67
2022-09-14T02:17:33.445Z,85.99
2022-09-14T02:17:45.401Z,86.16
2022-09-14T02:17:57.358Z,86.15
2022-09-14T02:18:09.244Z,86.23
2022-09-14T02:18:21.952Z,86.46
2022-09-14T02:18:33.988Z,86.67
2022-09-14T02:18:46.860Z,86.74
2022-09-14T02:19:02.036Z,86.87
2022-09-14T02:19:14.299Z,86.41
2022-09-14T02:19:31.167Z,86.72
2022-09-14T02:19:55.969Z,87.10
2022-09-14T02:20:14.141Z,87.19
2022-09-14T02:20:34.852Z,87.41
2022-09-14T02:20:54.157Z,87.40
2022-09-14T02:21:14.334Z,87.30
2022-09-14T02:21:29.303Z,87.40
2022-09-14T02:21:41.396Z,87.12
2022-09-14T02:21:53.579Z,87.33
2022-09-14T02:22:05.713Z,87.28
2022-09-14T02:22:17.686Z,87.04
2022-09-14T02:22:31.179Z,87.18
2022-09-14T02:22:43.286Z,87.26
2022-09-14T02:22:55.559Z,87.32
2022-09-14T02:23:08.076Z,86.75
2022-09-14T02:23:20.138Z,86.77
2022-09-14T02:23:32.369Z,86.67
2022-09-14T02:23:44.800Z,86.60
2022-09-14T02:23:59.018Z,86.29
2022-09-14T02:24:12.260Z,86.29
2022-09-14T02:24:24.173Z,86.35
2022-09-14T02:24:36.571Z,86.23
2022-09-14T02:24:49.243Z,86.29
2022-09-14T02:25:01.941Z,86.39
2022-09-14T02:25:14.332Z,86.84
2022-09-14T02:25:26.933Z,86.99
2022-09-14T02:25:41.044Z,87.26
2022-09-14T02:25:53.180Z,87.29
2022-09-14T02:26:05.478Z,87.41
2022-09-14T02:26:19.838Z,87.65
2022-09-14T02:26:32.486Z,88.08
2022-09-14T02:26:45.411Z,87.94
2022-09-14T02:26:58.515Z,87.91
2022-09-14T02:27:10.613Z,87.92
2022-09-14T02:27:22.782Z,87.96
2022-09-14T02:27:34.655Z,87.91
2022-09-14T02:27:48.101Z,87.80
2022-09-14T02:27:59.963Z,87.69
2022-09-14T02:28:12.235Z,87.66
2022-09-14T02:28:24.145Z,87.35
2022-09-14T02:28:36.331Z,87.39
2022-09-14T02:28:49.035Z,87.06
2022-09-14T02:29:01.094Z,87.13
2022-09-14T02:29:13.035Z,87.05
2022-09-14T02:29:24.999Z,86.49
2022-09-14T02:29:37.524Z,86.19
2022-09-14T02:29:50.123Z,86.35
2022-09-14T02:30:02.673Z,86.41
2022-09-14T02:30:16.333Z,86.73
2022-09-14T02:30:35.235Z,86.79
2022-09-14T02:31:07.721Z,86.82
2022-09-14T02:31:25.632Z,86.63
2022-09-14T02:31:54.084Z,86.00
2022-09-14T02:32:09.021Z,86.16
2022-09-14T02:32:26.734Z,85.92
2022-09-14T02:33:09.017Z,86.15
2022-09-14T02:33:59.104Z,86.77
2022-09-14T02:34:23.575Z,86.82
2022-09-14T02:35:12.262Z,86.07
2022-09-14T02:35:42.306Z,86.62
2022-09-14T02:35:57.584Z,87.05
2022-09-14T02:36:19.428Z,87.01
2022-09-14T02:36:49.150Z,87.12
2022-09-14T02:37:21.809Z,86.80
2022-09-14T02:37:57.255Z,86.32
2022-09-14T02:38:49.309Z,86.28
2022-09-14T02:39:13.191Z,86.22
2022-09-14T02:39:33.745Z,86.50
2022-09-14T02:40:24.887Z,85.83
2022-09-14T02:40:48.641Z,86.30
2022-09-14T02:41:13.829Z,86.38
2022-09-14T02:41:57.728Z,86.66
2022-09-14T02:42:46.994Z,87.11
2022-09-14T02:43:17.564Z,87.34
2022-09-14T02:43:51.020Z,87.03
2022-09-14T02:44:17.816Z,86.99
2022-09-14T02:44:38.052Z,87.27
2022-09-14T02:45:07.239Z,86.90
2022-09-14T02:45:36.843Z,87.01
2022-09-14T02:46:17.012Z,86.87
2022-09-14T02:46:41.292Z,86.86
2022-09-14T02:47:06.471Z,86.94
2022-09-14T02:47:42.725Z,87.07
2022-09-14T02:48:03.308Z,87.12
2022-09-14T02:48:17.935Z,87.29
2022-09-14T02:48:41.732Z,87.06
2022-09-14T02:49:33.260Z,87.05
2022-09-14T02:49:57.735Z,87.03
2022-09-14T02:50:09.637Z,87.05
2022-09-14T02:50:24.402Z,86.78
2022-09-14T02:51:03.199Z,86.96
2022-09-14T02:51:36.089Z,86.95
2022-09-14T02:51:56.657Z,86.97
2022-09-14T02:52:26.010Z,87.04
2022-09-14T02:53:17.162Z,87.05
2022-09-14T02:53:52.233Z,86.55
2022-09-14T02:54:11.635Z,86.62
2022-09-14T02:54:40.529Z,86.62
2022-09-14T02:54:58.933Z,86.37
2022-09-14T02:55:14.617Z,86.39
2022-09-14T02:55:31.735Z,86.42
2022-09-14T02:55:49.378Z,86.42
2022-09-14T02:56:05.919Z,86.39
2022-09-14T02:56:19.395Z,86.34
2022-09-14T02:56:32.406Z,86.33
2022-09-14T02:56:47.847Z,86.31
2022-09-14T02:57:03.739Z,86.37
2022-09-14T02:57:15.730Z,86.50
2022-09-14T02:57:27.660Z,86.44
2022-09-14T02:57:59.040Z,86.68
2022-09-14T02:58:13.011Z,86.59
2022-09-14T02:58:24.920Z,86.54
2022-09-14T02:58:44.769Z,86.51
2022-09-14T02:58:56.800Z,86.60
2022-09-14T02:59:08.713Z,86.67
2022-09-14T02:59:22.012Z,86.44
2022-09-14T02:59:33.984Z,86.12
2022-09-14T02:59:45.885Z,85.60
2022-09-14T02:59:57.814Z,85.45
2022-09-14T03:00:09.977Z,85.44
2022-09-14T03:00:21.882Z,85.41
2022-09-14T03:00:40.162Z,85.52
2022-09-14T03:00:52.282Z,85.82
2022-09-14T03:01:06.303Z,85.73
2022-09-14T03:01:20.667Z,85.70
2022-09-14T03:01:32.865Z,85.76
2022-09-14T03:01:44.871Z,85.73
2022-09-14T03:02:00.174Z,85.76
2022-09-14T03:02:12.284Z,86.01
2022-09-14T03:02:24.354Z,86.15
2022-09-14T03:02:36.358Z,86.36
2022-09-14T03:02:48.238Z,86.47
2022-09-14T03:03:03.108Z,86.53
2022-09-14T03:03:18.238Z,86.36
2022-09-14T03:03:33.504Z,86.22
2022-09-14T03:03:47.468Z,86.40
2022-09-14T03:03:59.399Z,86.42
2022-09-14T03:04:11.290Z,86.53
2022-09-14T03:04:23.256Z,86.87
2022-09-14T03:04:35.179Z,86.79
2022-09-14T03:04:47.074Z,86.81
2022-09-14T03:04:59.011Z,86.67
2022-09-14T03:05:10.943Z,86.88
2022-09-14T03:05:23.006Z,86.89
2022-09-14T03:05:35.003Z,86.73
2022-09-14T03:05:47.502Z,86.99
2022-09-14T03:05:59.473Z,86.63
2022-09-14T03:06:14.330Z,86.80
2022-09-14T03:06:28.240Z,86.69
2022-09-14T03:06:40.124Z,86.90
2022-09-14T03:06:54.735Z,86.65
2022-09-14T03:07:06.631Z,86.63
2022-09-14T03:07:18.530Z,86.43
2022-09-14T03:07:30.405Z,86.65
2022-09-14T03:07:42.325Z,86.66
2022-09-14T03:07:54.472Z,86.44
2022-09-14T03:08:07.118Z,86.32
2022-09-14T03:08:19.038Z,86.41
2022-09-14T03:08:32.264Z,86.21
2022-09-14T03:08:44.950Z,86.44
2022-09-14T03:08:56.822Z,86.58
2022-09-14T03:09:08.912Z,86.51
2022-09-14T03:09:20.915Z,86.76
2022-09-14T03:09:37.557Z,86.77
2022-09-14T03:09:49.591Z,86.99
2022-09-14T03:10:01.474Z,86.91
2022-09-14T03:10:13.451Z,86.52
2022-09-14T03:10:25.989Z,87.11
2022-09-14T03:10:42.473Z,86.87
2022-09-14T03:10:54.820Z,86.68
2022-09-14T03:11:06.764Z,86.85
2022-09-14T03:11:18.766Z,86.93
2022-09-14T03:11:30.959Z,86.92
2022-09-14T03:11:42.868Z,86.73
2022-09-14T03:11:54.750Z,86.81
2022-09-14T03:12:09.700Z,86.59
2022-09-14T03:12:24.177Z,86.59
2022-09-14T03:12:38.143Z,86.76
2022-09-14T03:12:50.055Z,86.80
2022-09-14T03:13:02.003Z,86.84
2022-09-14T03:13:16.190Z,87.32
2022-09-14T03:13:28.213Z,87.27
2022-09-14T03:13:40.199Z,87.02
2022-09-14T03:13:52.153Z,87.23
2022-09-14T03:14:04.058Z,87.30
2022-09-14T03:14:16.207Z,87.08
2022-09-14T03:14:30.985Z,87.14
2022-09-14T03:14:42.882Z,87.14
2022-09-14T03:14:54.767Z,87.04
2022-09-14T03:15:07.281Z,86.87
2022-09-14T03:15:19.300Z,86.97
2022-09-14T03:15:31.348Z,86.84
2022-09-14T03:15:43.826Z,86.88
2022-09-14T03:15:58.520Z,86.95
2022-09-14T03:16:14.048Z,87.02
2022-09-14T03:16:26.070Z,86.82
2022-09-14T03:16:38.633Z,86.61
2022-09-14T03:16:50.610Z,86.82
2022-09-14T03:17:02.500Z,86.81
2022-09-14T03:17:14.398Z,86.89
2022-09-14T03:17:26.268Z,86.84
2022-09-14T03:17:38.177Z,86.88
2022-09-14T03:17:51.309Z,87.00
2022-09-14T03:18:04.506Z,87.00
2022-09-14T03:18:18.380Z,87.35
2022-09-14T03:18:30.272Z,87.13
2022-09-14T03:18:42.672Z,87.05
2022-09-14T03:18:54.603Z,86.97
2022-09-14T03:19:06.544Z,87.12
2022-09-14T03:19:18.508Z,87.36
2022-09-14T03:19:30.836Z,87.23
2022-09-14T03:19:42.757Z,87.04
2022-09-14T03:19:54.635Z,86.88
2022-09-14T03:20:06.791Z,86.79
2022-09-14T03:20:25.822Z,86.97
2022-09-14T03:20:38.030Z,87.18
2022-09-14T03:20:49.920Z,87.16
2022-09-14T03:21:10.021Z,87.47
2022-09-14T03:21:22.053Z,87.11
2022-09-14T03:21:33.952Z,87.18
2022-09-14T03:21:45.861Z,87.87
2022-09-14T03:21:58.522Z,87.26
2022-09-14T03:22:10.419Z,87.28
2022-09-14T03:22:22.586Z,87.25
2022-09-14T03:22:34.562Z,87.53
2022-09-14T03:22:47.206Z,87.86
2022-09-14T03:22:59.784Z,87.54
2022-09-14T03:23:12.617Z,87.59
2022-09-14T03:23:24.502Z,87.75
2022-09-14T03:23:43.902Z,87.80
2022-09-14T03:23:57.712Z,87.70
2022-09-14T03:24:09.646Z,87.62
2022-09-14T03:24:21.700Z,87.70
2022-09-14T03:24:33.682Z,87.75
2022-09-14T03:24:45.577Z,87.94
2022-09-14T03:24:57.445Z,88.03
2022-09-14T03:25:09.873Z,88.05
2022-09-14T03:25:24.882Z,87.84
2022-09-14T03:25:38.804Z,87.54
2022-09-14T03:25:50.667Z,87.72
2022-09-14T03:26:07.213Z,87.84
2022-09-14T03:26:23.164Z,87.66
2022-09-14T03:26:38.143Z,87.67
2022-09-14T03:26:52.109Z,87.84
2022-09-14T03:27:04.212Z,87.66
2022-09-14T03:27:16.088Z,87.64
2022-09-14T03:27:28.016Z,87.46
2022-09-14T03:27:40.798Z,87.54
2022-09-14T03:27:54.984Z,87.90
2022-09-14T03:28:15.547Z,88.00
2022-09-14T03:28:27.432Z,87.88
2022-09-14T03:28:39.681Z,87.64
2022-09-14T03:28:53.766Z,87.46
2022-09-14T03:29:06.711Z,87.69
2022-09-14T03:29:18.584Z,87.78
2022-09-14T03:29:30.859Z,87.79
2022-09-14T03:29:42.755Z,87.74
2022-09-14T03:29:54.647Z,87.58
2022-09-14T03:30:07.833Z,87.57
2022-09-14T03:30:20.443Z,87.60
2022-09-14T03:30:33.217Z,87.63